Aviation Digital Data Service (ADDS)

Output produced by METARs form (0030 UTC 11 December 2017)
found at http://www.aviationweather.gov/adds/metars/
 
KFKL 102356Z AUTO 24011KT 10SM BKN055 OVC070 M03/M09 A2992 RMK AO2 SLP153 60000 T10331089 11022 21033 53009 FZRANO
KFKL 102256Z AUTO 24007KT 10SM OVC060 M03/M09 A2991 RMK AO2 SLP147 T10331089 FZRANO
KFKL 102156Z AUTO 22011G18KT 10SM SCT060 OVC075 M03/M09 A2989 RMK AO2 SNE25 SLP141 P0000 T10331089 FZRANO
KFKL 102112Z AUTO 23012KT 9SM -SN SCT027 BKN035 OVC055 M03/M08 A2990 RMK AO2 P0000 FZRANO
KFKL 102056Z AUTO 23012G18KT 8SM -SN BKN028 BKN038 OVC047 M03/M08 A2989 RMK AO2 SLP143 P0000 60000 T10281078 55002 FZRANO
KFKL 101956Z AUTO 24011G19KT 9SM -SN OVC028 M03/M08 A2988 RMK AO2 SNE1859B27 SLP140 P0000 T10281078 FZRANO
KFKL 101856Z AUTO 24012G21KT 9SM -SN OVC024 M03/M08 A2989 RMK AO2 SLP142 P0000 T10281078 FZRANO
KFKL 101756Z AUTO 23013G16KT 8SM -SN BKN022 OVC030 M03/M07 A2990 RMK AO2 SLP146 P0000 60000 T10281072 11028 21039 58011 FZRANO
KFKL 101656Z AUTO 23014G19KT 210V270 10SM -SN OVC020 M03/M08 A2992 RMK AO2 SNB1558E25B56 SLP151 P0000 T10331078 FZRANO
KFKL 101556Z AUTO 24016KT 10SM OVC020 M03/M07 A2994 RMK AO2 SNE1458 SLP159 P0000 T10331072 FZRANO
KFKL 101456Z AUTO 25012G17KT 9SM -SN OVC016 M03/M07 A2994 RMK AO2 SLP159 P0000 60000 T10331072 51016 FZRANO
KFKL 101420Z AUTO 26011KT 5SM -SN BR OVC014 M04/M06 A2994 RMK AO2 P0000 FZRANO
KFKL 101411Z AUTO 24011G17KT 2 1/2SM -SN BR BKN012 OVC017 M04/M06 A2994 RMK AO2 VIS 2V4 P0000 FZRANO
KFKL 101404Z AUTO 25009KT 2 1/2SM -SN BR OVC015 M04/M06 A2993 RMK AO2 VIS 2V4 P0000 FZRANO
KFKL 101356Z AUTO 26011KT 3SM -SN BR OVC015 M04/M06 A2993 RMK AO2 SLP157 P0000 T10391061 FZRANO
KFKL 101256Z AUTO 26011KT 9SM -SN OVC011 M04/M06 A2991 RMK AO2 SLP148 P0000 T10391056 FZRANO
KFKL 101238Z AUTO 24010KT 7SM -SN OVC011 M04/M06 A2990 RMK AO2 CIG 008V015 P0000 FZRANO
KFKL 101156Z AUTO 25007KT 5SM -SN BR OVC009 M04/M05 A2989 RMK AO2 SLP140 P0000 60000 T10391050 11039 21039 53017 FZRANO
KFKL 101056Z AUTO 26009KT 4SM -SN BR OVC009 M04/M05 A2986 RMK AO2 CIG 007V012 SLP132 P0000 T10391050 FZRANO
KFKL 100956Z AUTO 25008KT 6SM -SN BR OVC009 M04/M06 A2984 RMK AO2 SLP126 P0000 T10391056 FZRANO
KFKL 100856Z AUTO 25009KT 5SM -SN BR OVC009 M04/M06 A2984 RMK AO2 SLP122 P0000 60000 T10391056 52012 FZRANO
KFKL 100756Z AUTO 25009KT 6SM -SN BR OVC007 M04/M05 A2983 RMK AO2 UPB27E53SNE27B53 CIG 005V010 SLP119 P0000 T10391050 FZRANO
KFKL 100708Z AUTO 26011G15KT 4SM -SN BR OVC009 M04/M06 A2981 RMK AO2 CIG 008V012 P0000 FZRANO
KFKL 100656Z AUTO 26008KT 4SM -SN BR OVC011 M04/M06 A2981 RMK AO2 SLP113 P0000 T10391056 FZRANO
KFKL 100604Z AUTO 25006KT 9SM -SN OVC013 M04/M06 A2980 RMK AO2 P0000 FZRANO
KFKL 100556Z AUTO 25008KT 9SM -SN OVC015 M04/M06 A2980 RMK AO2 SNB42 SLP110 P0000 60000 T10391061 11022 21044 51006 FZRANO
KFKL 100532Z AUTO 26007KT 10SM BKN015 OVC021 M04/M06 A2980 RMK AO2 FZRANO
KFKL 100456Z AUTO 26007KT 9SM OVC014 M04/M06 A2980 RMK AO2 SNE55 SLP109 P0000 T10391061 400001089 FZRANO
KFKL 100439Z AUTO 25007KT 9SM -SN OVC014 M04/M07 A2979 RMK AO2 P0000 FZRANO
KFKL 100405Z AUTO 24005KT 9SM -SN BKN020 BKN060 OVC070 M04/M07 A2979 RMK AO2 P0000 FZRANO
KFKL 100356Z AUTO 23004KT 9SM -SN SCT022 SCT060 BKN070 M04/M07 A2979 RMK AO2 SLP108 P0000 T10441067 FZRANO
KFKL 100256Z AUTO 25006KT 9SM -SN FEW027 OVC041 M04/M07 A2978 RMK AO2 SLP106 P0000 60000 T10441067 58001 FZRANO
KFKL 100251Z AUTO 25004KT 8SM -SN FEW027 OVC041 M04/M07 A2978 RMK AO2 P0000 FZRANO
KFKL 100156Z AUTO 26006KT 6SM -SN OVC029 M04/M07 A2979 RMK AO2 SLP109 P0000 T10391072 FZRANO
KFKL 100152Z AUTO 26006KT 6SM -SN BKN025 OVC029 M04/M07 A2978 RMK AO2 P0000 FZRANO
KFKL 100056Z AUTO 25008KT 9SM -SN OVC040 M03/M09 A2977 RMK AO2 SNB37 SLP105 P0000 T10281094 FZRANO